sensor_id;sensor_type;location;lat;lon;timestamp;P1;durP1;ratioP1;P2;durP2;ratioP2
78622;SDS011;67943;54.412;9.502;2023-03-14T00:00:59;24.50;;;4.32;;
78622;SDS011;67943;54.412;9.502;2023-03-14T00:06:01;24.38;;;5.22;;
78622;SDS011;67943;54.412;9.502;2023-03-14T00:11:04;22.67;;;4.13;;
78622;SDS011;67943;54.412;9.502;2023-03-14T00:16:09;21.15;;;4.70;;
78622;SDS011;67943;54.412;9.502;2023-03-14T00:21:12;28.80;;;4.60;;
78622;SDS011;67943;54.412;9.502;2023-03-14T00:26:14;27.67;;;5.35;;
78622;SDS011;67943;54.412;9.502;2023-03-14T00:31:19;22.05;;;4.32;;
78622;SDS011;67943;54.412;9.502;2023-03-14T00:36:21;26.27;;;4.78;;
78622;SDS011;67943;54.412;9.502;2023-03-14T00:41:23;32.38;;;4.85;;
78622;SDS011;67943;54.412;9.502;2023-03-14T00:46:26;20.50;;;4.50;;
78622;SDS011;67943;54.412;9.502;2023-03-14T00:51:28;19.60;;;4.13;;
78622;SDS011;67943;54.412;9.502;2023-03-14T00:56:30;27.88;;;4.80;;
78622;SDS011;67943;54.412;9.502;2023-03-14T01:01:33;20.30;;;4.53;;
78622;SDS011;67943;54.412;9.502;2023-03-14T01:06:35;26.88;;;4.40;;
78622;SDS011;67943;54.412;9.502;2023-03-14T01:11:36;21.63;;;4.25;;
78622;SDS011;67943;54.412;9.502;2023-03-14T01:16:39;28.92;;;4.75;;
78622;SDS011;67943;54.412;9.502;2023-03-14T01:21:40;31.90;;;4.20;;
78622;SDS011;67943;54.412;9.502;2023-03-14T01:26:42;25.60;;;4.50;;
78622;SDS011;67943;54.412;9.502;2023-03-14T01:31:45;22.90;;;4.15;;
78622;SDS011;67943;54.412;9.502;2023-03-14T01:36:46;24.00;;;3.85;;
78622;SDS011;67943;54.412;9.502;2023-03-14T01:41:48;19.13;;;3.63;;
78622;SDS011;67943;54.412;9.502;2023-03-14T01:46:50;18.80;;;3.80;;
78622;SDS011;67943;54.412;9.502;2023-03-14T01:51:53;24.38;;;4.20;;
78622;SDS011;67943;54.412;9.502;2023-03-14T01:56:58;18.98;;;3.85;;
78622;SDS011;67943;54.412;9.502;2023-03-14T02:02:06;27.38;;;4.82;;
78622;SDS011;67943;54.412;9.502;2023-03-14T02:07:12;27.58;;;4.65;;
78622;SDS011;67943;54.412;9.502;2023-03-14T02:12:16;21.48;;;3.53;;
78622;SDS011;67943;54.412;9.502;2023-03-14T02:17:20;20.17;;;4.03;;
78622;SDS011;67943;54.412;9.502;2023-03-14T02:22:24;28.77;;;4.88;;
78622;SDS011;67943;54.412;9.502;2023-03-14T02:27:27;21.65;;;4.07;;
78622;SDS011;67943;54.412;9.502;2023-03-14T02:32:29;25.65;;;4.32;;
78622;SDS011;67943;54.412;9.502;2023-03-14T02:37:35;23.52;;;4.10;;
78622;SDS011;67943;54.412;9.502;2023-03-14T02:42:43;21.80;;;4.28;;
78622;SDS011;67943;54.412;9.502;2023-03-14T02:47:46;19.65;;;4.07;;
78622;SDS011;67943;54.412;9.502;2023-03-14T02:52:53;27.58;;;4.10;;
78622;SDS011;67943;54.412;9.502;2023-03-14T02:57:56;27.38;;;5.00;;
78622;SDS011;67943;54.412;9.502;2023-03-14T03:02:57;23.45;;;4.22;;
78622;SDS011;67943;54.412;9.502;2023-03-14T03:07:59;20.23;;;4.28;;
78622;SDS011;67943;54.412;9.502;2023-03-14T03:13:02;23.45;;;4.07;;
78622;SDS011;67943;54.412;9.502;2023-03-14T03:18:04;18.90;;;3.75;;
78622;SDS011;67943;54.412;9.502;2023-03-14T03:23:05;27.42;;;4.57;;
78622;SDS011;67943;54.412;9.502;2023-03-14T03:28:08;28.75;;;4.65;;
78622;SDS011;67943;54.412;9.502;2023-03-14T03:33:10;20.00;;;4.30;;
78622;SDS011;67943;54.412;9.502;2023-03-14T03:38:13;28.83;;;5.10;;
78622;SDS011;67943;54.412;9.502;2023-03-14T03:43:15;20.77;;;3.45;;
78622;SDS011;67943;54.412;9.502;2023-03-14T03:48:18;20.27;;;3.33;;
78622;SDS011;67943;54.412;9.502;2023-03-14T03:53:19;27.63;;;4.53;;
78622;SDS011;67943;54.412;9.502;2023-03-14T03:58:22;18.20;;;4.10;;
78622;SDS011;67943;54.412;9.502;2023-03-14T04:03:24;15.82;;;3.67;;
78622;SDS011;67943;54.412;9.502;2023-03-14T04:08:26;15.55;;;3.05;;
78622;SDS011;67943;54.412;9.502;2023-03-14T04:13:29;19.10;;;3.10;;
78622;SDS011;67943;54.412;9.502;2023-03-14T04:18:31;14.05;;;3.15;;
78622;SDS011;67943;54.412;9.502;2023-03-14T04:23:32;10.73;;;2.92;;
78622;SDS011;67943;54.412;9.502;2023-03-14T04:28:36;13.38;;;2.72;;
78622;SDS011;67943;54.412;9.502;2023-03-14T04:33:39;16.15;;;2.90;;
78622;SDS011;67943;54.412;9.502;2023-03-14T04:38:40;11.80;;;2.90;;
78622;SDS011;67943;54.412;9.502;2023-03-14T04:43:43;7.95;;;2.90;;
78622;SDS011;67943;54.412;9.502;2023-03-14T04:48:45;11.98;;;2.55;;
78622;SDS011;67943;54.412;9.502;2023-03-14T04:53:46;10.93;;;2.90;;
78622;SDS011;67943;54.412;9.502;2023-03-14T04:58:49;9.93;;;3.05;;
78622;SDS011;67943;54.412;9.502;2023-03-14T05:03:51;12.48;;;3.30;;
78622;SDS011;67943;54.412;9.502;2023-03-14T05:08:52;10.32;;;3.25;;
78622;SDS011;67943;54.412;9.502;2023-03-14T05:13:55;8.27;;;2.78;;
78622;SDS011;67943;54.412;9.502;2023-03-14T05:18:57;10.13;;;2.63;;
78622;SDS011;67943;54.412;9.502;2023-03-14T05:23:58;10.20;;;3.10;;
78622;SDS011;67943;54.412;9.502;2023-03-14T05:29:01;9.50;;;3.00;;
78622;SDS011;67943;54.412;9.502;2023-03-14T05:34:03;14.68;;;3.25;;
78622;SDS011;67943;54.412;9.502;2023-03-14T05:39:04;10.30;;;3.03;;
78622;SDS011;67943;54.412;9.502;2023-03-14T05:44:07;14.15;;;3.50;;
78622;SDS011;67943;54.412;9.502;2023-03-14T05:49:09;16.00;;;4.40;;
78622;SDS011;67943;54.412;9.502;2023-03-14T05:54:10;15.77;;;4.45;;
78622;SDS011;67943;54.412;9.502;2023-03-14T05:59:13;12.02;;;4.57;;
78622;SDS011;67943;54.412;9.502;2023-03-14T06:04:15;14.10;;;4.35;;
78622;SDS011;67943;54.412;9.502;2023-03-14T06:09:16;16.38;;;5.20;;
78622;SDS011;67943;54.412;9.502;2023-03-14T06:14:21;14.75;;;4.85;;
78622;SDS011;67943;54.412;9.502;2023-03-14T06:19:22;16.90;;;5.63;;
78622;SDS011;67943;54.412;9.502;2023-03-14T06:24:24;20.00;;;6.10;;
78622;SDS011;67943;54.412;9.502;2023-03-14T06:29:27;20.52;;;4.85;;
78622;SDS011;67943;54.412;9.502;2023-03-14T06:34:28;13.35;;;5.00;;
78622;SDS011;67943;54.412;9.502;2023-03-14T06:39:30;12.45;;;5.55;;
78622;SDS011;67943;54.412;9.502;2023-03-14T06:44:34;17.52;;;5.97;;
78622;SDS011;67943;54.412;9.502;2023-03-14T06:49:35;18.00;;;5.30;;
78622;SDS011;67943;54.412;9.502;2023-03-14T06:54:37;15.48;;;5.50;;
78622;SDS011;67943;54.412;9.502;2023-03-14T06:59:39;18.63;;;5.38;;
78622;SDS011;67943;54.412;9.502;2023-03-14T07:04:41;17.48;;;5.55;;
78622;SDS011;67943;54.412;9.502;2023-03-14T07:09:43;16.63;;;6.70;;
78622;SDS011;67943;54.412;9.502;2023-03-14T07:14:45;15.88;;;6.10;;
78622;SDS011;67943;54.412;9.502;2023-03-14T07:19:47;16.58;;;6.28;;
78622;SDS011;67943;54.412;9.502;2023-03-14T07:24:48;17.15;;;6.82;;
78622;SDS011;67943;54.412;9.502;2023-03-14T07:29:51;21.33;;;6.78;;
78622;SDS011;67943;54.412;9.502;2023-03-14T07:34:53;18.55;;;6.28;;
78622;SDS011;67943;54.412;9.502;2023-03-14T07:39:54;14.07;;;4.90;;
78622;SDS011;67943;54.412;9.502;2023-03-14T07:44:57;15.15;;;4.53;;
78622;SDS011;67943;54.412;9.502;2023-03-14T07:49:59;18.40;;;5.30;;
78622;SDS011;67943;54.412;9.502;2023-03-14T07:55:00;13.02;;;4.70;;
78622;SDS011;67943;54.412;9.502;2023-03-14T08:00:03;3.85;;;1.25;;
78622;SDS011;67943;54.412;9.502;2023-03-14T08:05:07;2.17;;;0.75;;
78622;SDS011;67943;54.412;9.502;2023-03-14T08:10:09;1.52;;;0.80;;
78622;SDS011;67943;54.412;9.502;2023-03-14T08:15:14;3.03;;;1.15;;
78622;SDS011;67943;54.412;9.502;2023-03-14T08:20:16;3.10;;;1.00;;
78622;SDS011;67943;54.412;9.502;2023-03-14T08:25:18;4.18;;;0.82;;
78622;SDS011;67943;54.412;9.502;2023-03-14T08:30:21;3.25;;;0.70;;
78622;SDS011;67943;54.412;9.502;2023-03-14T08:35:23;3.33;;;0.75;;
78622;SDS011;67943;54.412;9.502;2023-03-14T08:40:25;4.95;;;0.75;;
78622;SDS011;67943;54.412;9.502;2023-03-14T08:45:28;5.20;;;0.70;;
78622;SDS011;67943;54.412;9.502;2023-03-14T08:50:29;5.07;;;0.95;;
78622;SDS011;67943;54.412;9.502;2023-03-14T08:55:31;4.78;;;0.70;;
78622;SDS011;67943;54.412;9.502;2023-03-14T09:00:34;3.22;;;0.60;;
78622;SDS011;67943;54.412;9.502;2023-03-14T09:05:35;2.70;;;0.50;;
78622;SDS011;67943;54.412;9.502;2023-03-14T09:10:37;3.13;;;0.60;;
78622;SDS011;67943;54.412;9.502;2023-03-14T09:15:41;1.83;;;0.63;;
78622;SDS011;67943;54.412;9.502;2023-03-14T09:20:43;3.08;;;0.50;;
78622;SDS011;67943;54.412;9.502;2023-03-14T09:25:44;0.77;;;0.35;;
78622;SDS011;67943;54.412;9.502;2023-03-14T09:30:47;0.28;;;0.17;;
78622;SDS011;67943;54.412;9.502;2023-03-14T09:35:49;0.35;;;0.20;;
78622;SDS011;67943;54.412;9.502;2023-03-14T09:40:51;2.70;;;0.60;;
78622;SDS011;67943;54.412;9.502;2023-03-14T09:45:55;2.72;;;0.45;;
78622;SDS011;67943;54.412;9.502;2023-03-14T09:50:59;5.63;;;1.20;;
78622;SDS011;67943;54.412;9.502;2023-03-14T09:56:07;2.38;;;0.52;;
78622;SDS011;67943;54.412;9.502;2023-03-14T10:01:15;2.47;;;0.50;;
78622;SDS011;67943;54.412;9.502;2023-03-14T10:06:21;8.63;;;1.27;;
78622;SDS011;67943;54.412;9.502;2023-03-14T10:11:26;4.60;;;1.00;;
78622;SDS011;67943;54.412;9.502;2023-03-14T10:16:29;4.13;;;0.82;;
78622;SDS011;67943;54.412;9.502;2023-03-14T10:21:35;7.28;;;1.20;;
78622;SDS011;67943;54.412;9.502;2023-03-14T10:26:38;10.70;;;1.25;;
78622;SDS011;67943;54.412;9.502;2023-03-14T10:31:47;7.63;;;1.20;;
78622;SDS011;67943;54.412;9.502;2023-03-14T10:36:55;7.73;;;1.10;;
78622;SDS011;67943;54.412;9.502;2023-03-14T10:42:01;4.47;;;1.20;;
78622;SDS011;67943;54.412;9.502;2023-03-14T10:47:12;6.50;;;1.02;;
78622;SDS011;67943;54.412;9.502;2023-03-14T10:52:20;7.35;;;1.70;;
78622;SDS011;67943;54.412;9.502;2023-03-14T10:57:23;7.88;;;1.40;;
78622;SDS011;67943;54.412;9.502;2023-03-14T11:02:34;14.50;;;1.77;;
78622;SDS011;67943;54.412;9.502;2023-03-14T11:07:45;10.23;;;1.60;;
78622;SDS011;67943;54.412;9.502;2023-03-14T11:12:52;8.05;;;1.70;;
78622;SDS011;67943;54.412;9.502;2023-03-14T11:18:12;10.65;;;2.13;;
78622;SDS011;67943;54.412;9.502;2023-03-14T11:23:39;8.93;;;1.85;;
78622;SDS011;67943;54.412;9.502;2023-03-14T11:28:45;10.77;;;1.70;;
78622;SDS011;67943;54.412;9.502;2023-03-14T11:33:53;12.50;;;2.08;;
78622;SDS011;67943;54.412;9.502;2023-03-14T11:38:58;16.52;;;2.03;;
78622;SDS011;67943;54.412;9.502;2023-03-14T11:44:01;11.23;;;2.15;;
78622;SDS011;67943;54.412;9.502;2023-03-14T11:49:10;9.77;;;2.10;;
78622;SDS011;67943;54.412;9.502;2023-03-14T11:54:20;19.35;;;2.70;;
78622;SDS011;67943;54.412;9.502;2023-03-14T11:59:29;13.88;;;2.53;;
78622;SDS011;67943;54.412;9.502;2023-03-14T12:04:47;19.13;;;2.30;;
78622;SDS011;67943;54.412;9.502;2023-03-14T12:09:55;18.50;;;2.75;;
78622;SDS011;67943;54.412;9.502;2023-03-14T12:14:58;10.50;;;2.17;;
78622;SDS011;67943;54.412;9.502;2023-03-14T12:20:04;9.93;;;1.67;;
78622;SDS011;67943;54.412;9.502;2023-03-14T12:25:16;12.60;;;3.30;;
78622;SDS011;67943;54.412;9.502;2023-03-14T12:30:24;12.23;;;1.95;;
78622;SDS011;67943;54.412;9.502;2023-03-14T12:35:34;10.80;;;2.17;;
78622;SDS011;67943;54.412;9.502;2023-03-14T12:40:37;6.72;;;1.60;;
78622;SDS011;67943;54.412;9.502;2023-03-14T12:45:42;9.45;;;1.67;;
78622;SDS011;67943;54.412;9.502;2023-03-14T12:51:16;7.63;;;1.92;;
78622;SDS011;67943;54.412;9.502;2023-03-14T12:56:21;5.47;;;1.00;;
78622;SDS011;67943;54.412;9.502;2023-03-14T13:01:27;7.68;;;1.60;;
78622;SDS011;67943;54.412;9.502;2023-03-14T13:06:44;8.60;;;1.77;;
78622;SDS011;67943;54.412;9.502;2023-03-14T13:11:49;3.50;;;1.05;;
78622;SDS011;67943;54.412;9.502;2023-03-14T13:16:51;7.45;;;1.42;;
78622;SDS011;67943;54.412;9.502;2023-03-14T13:21:54;5.97;;;1.50;;
78622;SDS011;67943;54.412;9.502;2023-03-14T13:27:01;5.80;;;1.33;;
78622;SDS011;67943;54.412;9.502;2023-03-14T13:32:12;8.60;;;1.25;;
78622;SDS011;67943;54.412;9.502;2023-03-14T13:37:19;9.38;;;1.77;;
78622;SDS011;67943;54.412;9.502;2023-03-14T13:42:24;5.80;;;1.20;;
78622;SDS011;67943;54.412;9.502;2023-03-14T13:47:28;6.50;;;1.63;;
78622;SDS011;67943;54.412;9.502;2023-03-14T13:52:30;7.85;;;1.20;;
78622;SDS011;67943;54.412;9.502;2023-03-14T13:57:45;5.00;;;1.10;;
78622;SDS011;67943;54.412;9.502;2023-03-14T14:02:50;7.57;;;1.27;;
78622;SDS011;67943;54.412;9.502;2023-03-14T14:07:52;6.38;;;1.10;;
78622;SDS011;67943;54.412;9.502;2023-03-14T14:12:55;6.75;;;1.73;;
78622;SDS011;67943;54.412;9.502;2023-03-14T14:18:02;7.72;;;1.85;;
78622;SDS011;67943;54.412;9.502;2023-03-14T14:23:09;5.75;;;1.63;;
78622;SDS011;67943;54.412;9.502;2023-03-14T14:28:16;14.25;;;2.03;;
78622;SDS011;67943;54.412;9.502;2023-03-14T14:33:24;11.50;;;2.25;;
78622;SDS011;67943;54.412;9.502;2023-03-14T14:38:25;10.45;;;1.52;;
78622;SDS011;67943;54.412;9.502;2023-03-14T14:43:28;5.68;;;1.20;;
78622;SDS011;67943;54.412;9.502;2023-03-14T14:48:37;9.88;;;1.40;;
78622;SDS011;67943;54.412;9.502;2023-03-14T14:53:39;6.22;;;1.33;;
78622;SDS011;67943;54.412;9.502;2023-03-14T14:58:43;9.23;;;1.60;;
78622;SDS011;67943;54.412;9.502;2023-03-14T15:03:48;8.65;;;1.77;;
78622;SDS011;67943;54.412;9.502;2023-03-14T15:08:52;7.95;;;1.83;;
78622;SDS011;67943;54.412;9.502;2023-03-14T15:13:54;15.25;;;2.78;;
78622;SDS011;67943;54.412;9.502;2023-03-14T15:18:58;11.32;;;2.13;;
78622;SDS011;67943;54.412;9.502;2023-03-14T15:24:01;7.80;;;2.20;;
78622;SDS011;67943;54.412;9.502;2023-03-14T15:29:02;11.45;;;2.53;;
78622;SDS011;67943;54.412;9.502;2023-03-14T15:34:06;18.30;;;2.25;;
78622;SDS011;67943;54.412;9.502;2023-03-14T15:39:12;7.95;;;1.80;;
78622;SDS011;67943;54.412;9.502;2023-03-14T15:44:14;12.63;;;2.20;;
78622;SDS011;67943;54.412;9.502;2023-03-14T15:49:17;9.90;;;1.95;;
78622;SDS011;67943;54.412;9.502;2023-03-14T15:54:19;8.02;;;1.52;;
78622;SDS011;67943;54.412;9.502;2023-03-14T15:59:20;12.40;;;2.00;;
78622;SDS011;67943;54.412;9.502;2023-03-14T16:04:23;11.75;;;2.22;;
78622;SDS011;67943;54.412;9.502;2023-03-14T16:09:25;7.20;;;1.63;;
78622;SDS011;67943;54.412;9.502;2023-03-14T16:14:27;9.38;;;1.90;;
78622;SDS011;67943;54.412;9.502;2023-03-14T16:19:30;10.57;;;2.17;;
78622;SDS011;67943;54.412;9.502;2023-03-14T16:24:32;8.88;;;1.55;;
78622;SDS011;67943;54.412;9.502;2023-03-14T16:29:33;13.02;;;1.73;;
78622;SDS011;67943;54.412;9.502;2023-03-14T16:34:38;9.63;;;1.85;;
78622;SDS011;67943;54.412;9.502;2023-03-14T16:39:40;8.82;;;1.60;;
78622;SDS011;67943;54.412;9.502;2023-03-14T16:45:02;14.90;;;1.85;;
78622;SDS011;67943;54.412;9.502;2023-03-14T16:50:06;8.88;;;1.58;;
78622;SDS011;67943;54.412;9.502;2023-03-14T16:55:08;12.23;;;1.60;;
78622;SDS011;67943;54.412;9.502;2023-03-14T17:00:10;14.00;;;1.92;;
78622;SDS011;67943;54.412;9.502;2023-03-14T17:05:14;10.18;;;1.38;;
78622;SDS011;67943;54.412;9.502;2023-03-14T17:10:16;12.60;;;1.63;;
78622;SDS011;67943;54.412;9.502;2023-03-14T17:15:18;9.00;;;1.80;;
78622;SDS011;67943;54.412;9.502;2023-03-14T17:20:20;14.60;;;1.73;;
78622;SDS011;67943;54.412;9.502;2023-03-14T17:25:22;14.68;;;1.80;;
78622;SDS011;67943;54.412;9.502;2023-03-14T17:30:23;16.70;;;2.50;;
78622;SDS011;67943;54.412;9.502;2023-03-14T17:40:28;14.77;;;1.65;;
78622;SDS011;67943;54.412;9.502;2023-03-14T17:45:29;13.68;;;1.58;;
78622;SDS011;67943;54.412;9.502;2023-03-14T17:50:32;10.38;;;1.90;;
78622;SDS011;67943;54.412;9.502;2023-03-14T17:55:36;10.07;;;1.60;;
78622;SDS011;67943;54.412;9.502;2023-03-14T18:00:38;11.90;;;2.88;;
78622;SDS011;67943;54.412;9.502;2023-03-14T18:05:41;12.75;;;2.33;;
78622;SDS011;67943;54.412;9.502;2023-03-14T18:10:43;19.00;;;2.53;;
78622;SDS011;67943;54.412;9.502;2023-03-14T18:15:46;8.98;;;1.67;;
78622;SDS011;67943;54.412;9.502;2023-03-14T18:26:08;11.97;;;1.90;;
78622;SDS011;67943;54.412;9.502;2023-03-14T18:31:11;12.85;;;2.10;;
78622;SDS011;67943;54.412;9.502;2023-03-14T18:36:16;11.43;;;2.10;;
78622;SDS011;67943;54.412;9.502;2023-03-14T18:41:18;11.35;;;1.50;;
78622;SDS011;67943;54.412;9.502;2023-03-14T18:46:20;11.60;;;2.55;;
78622;SDS011;67943;54.412;9.502;2023-03-14T18:51:24;10.00;;;1.67;;
78622;SDS011;67943;54.412;9.502;2023-03-14T18:56:27;5.97;;;1.63;;
78622;SDS011;67943;54.412;9.502;2023-03-14T19:06:58;11.43;;;1.77;;
78622;SDS011;67943;54.412;9.502;2023-03-14T19:12:01;11.98;;;3.40;;
78622;SDS011;67943;54.412;9.502;2023-03-14T19:17:02;13.60;;;2.30;;
78622;SDS011;67943;54.412;9.502;2023-03-14T19:22:05;14.40;;;2.25;;
78622;SDS011;67943;54.412;9.502;2023-03-14T19:27:06;13.55;;;3.50;;
78622;SDS011;67943;54.412;9.502;2023-03-14T19:32:08;13.20;;;3.25;;
78622;SDS011;67943;54.412;9.502;2023-03-14T19:37:11;8.52;;;1.92;;
78622;SDS011;67943;54.412;9.502;2023-03-14T19:42:13;6.97;;;1.42;;
78622;SDS011;67943;54.412;9.502;2023-03-14T19:47:15;12.45;;;1.88;;
78622;SDS011;67943;54.412;9.502;2023-03-14T19:52:21;10.95;;;2.22;;
78622;SDS011;67943;54.412;9.502;2023-03-14T19:57:25;8.52;;;3.08;;
78622;SDS011;67943;54.412;9.502;2023-03-14T20:02:27;9.23;;;2.38;;
78622;SDS011;67943;54.412;9.502;2023-03-14T20:07:30;6.65;;;1.30;;
78622;SDS011;67943;54.412;9.502;2023-03-14T20:12:31;8.23;;;1.58;;
78622;SDS011;67943;54.412;9.502;2023-03-14T20:17:34;11.82;;;2.38;;
78622;SDS011;67943;54.412;9.502;2023-03-14T20:22:39;9.27;;;1.70;;
78622;SDS011;67943;54.412;9.502;2023-03-14T20:27:40;12.93;;;1.77;;
78622;SDS011;67943;54.412;9.502;2023-03-14T20:32:42;10.73;;;1.50;;
78622;SDS011;67943;54.412;9.502;2023-03-14T20:37:45;9.85;;;1.38;;
78622;SDS011;67943;54.412;9.502;2023-03-14T20:42:46;13.55;;;2.03;;
78622;SDS011;67943;54.412;9.502;2023-03-14T20:47:48;8.55;;;1.30;;
78622;SDS011;67943;54.412;9.502;2023-03-14T20:52:51;7.38;;;1.48;;
78622;SDS011;67943;54.412;9.502;2023-03-14T20:57:52;6.00;;;0.95;;
78622;SDS011;67943;54.412;9.502;2023-03-14T21:02:54;4.53;;;0.88;;
78622;SDS011;67943;54.412;9.502;2023-03-14T21:07:57;3.55;;;0.82;;
78622;SDS011;67943;54.412;9.502;2023-03-14T21:12:58;1.38;;;0.52;;
78622;SDS011;67943;54.412;9.502;2023-03-14T21:18:00;3.75;;;0.43;;
78622;SDS011;67943;54.412;9.502;2023-03-14T21:23:05;4.53;;;0.65;;
78622;SDS011;67943;54.412;9.502;2023-03-14T21:28:07;6.13;;;0.90;;
78622;SDS011;67943;54.412;9.502;2023-03-14T21:33:08;4.53;;;1.00;;
78622;SDS011;67943;54.412;9.502;2023-03-14T21:38:11;6.20;;;1.00;;
78622;SDS011;67943;54.412;9.502;2023-03-14T21:43:13;14.07;;;1.67;;
78622;SDS011;67943;54.412;9.502;2023-03-14T21:48:15;9.80;;;1.00;;
78622;SDS011;67943;54.412;9.502;2023-03-14T21:53:18;7.35;;;1.15;;
78622;SDS011;67943;54.412;9.502;2023-03-14T21:58:20;7.88;;;1.25;;
78622;SDS011;67943;54.412;9.502;2023-03-14T22:03:23;6.07;;;1.00;;
78622;SDS011;67943;54.412;9.502;2023-03-14T22:08:26;4.88;;;0.90;;
78622;SDS011;67943;54.412;9.502;2023-03-14T22:13:27;5.93;;;0.88;;
78622;SDS011;67943;54.412;9.502;2023-03-14T22:18:29;7.18;;;1.38;;
78622;SDS011;67943;54.412;9.502;2023-03-14T22:23:32;5.93;;;1.00;;
78622;SDS011;67943;54.412;9.502;2023-03-14T22:28:33;4.93;;;0.90;;
78622;SDS011;67943;54.412;9.502;2023-03-14T22:33:35;12.63;;;1.13;;
78622;SDS011;67943;54.412;9.502;2023-03-14T22:38:38;5.07;;;0.95;;
78622;SDS011;67943;54.412;9.502;2023-03-14T22:43:39;4.82;;;0.90;;
78622;SDS011;67943;54.412;9.502;2023-03-14T22:48:41;11.27;;;0.93;;
78622;SDS011;67943;54.412;9.502;2023-03-14T22:53:44;9.65;;;1.45;;
78622;SDS011;67943;54.412;9.502;2023-03-14T22:58:45;6.88;;;1.13;;
78622;SDS011;67943;54.412;9.502;2023-03-14T23:03:47;5.45;;;1.33;;
78622;SDS011;67943;54.412;9.502;2023-03-14T23:08:50;6.55;;;0.70;;
78622;SDS011;67943;54.412;9.502;2023-03-14T23:13:51;14.00;;;1.42;;
78622;SDS011;67943;54.412;9.502;2023-03-14T23:18:53;7.38;;;1.58;;
78622;SDS011;67943;54.412;9.502;2023-03-14T23:23:56;7.82;;;1.52;;
78622;SDS011;67943;54.412;9.502;2023-03-14T23:28:57;4.50;;;1.10;;
78622;SDS011;67943;54.412;9.502;2023-03-14T23:33:59;6.70;;;1.00;;
78622;SDS011;67943;54.412;9.502;2023-03-14T23:39:02;11.90;;;1.10;;
78622;SDS011;67943;54.412;9.502;2023-03-14T23:44:04;12.00;;;1.27;;
78622;SDS011;67943;54.412;9.502;2023-03-14T23:49:06;13.10;;;1.77;;
78622;SDS011;67943;54.412;9.502;2023-03-14T23:54:08;10.27;;;1.33;;
78622;SDS011;67943;54.412;9.502;2023-03-14T23:59:10;10.05;;;1.25;;
